sensor_id;sensor_type;location;lat;lon;timestamp;P1;durP1;ratioP1;P2;durP2;ratioP2
12774;SDS011;6451;42.630;23.382;2023-02-01T00:00:57;6.50;;;5.00;;
12774;SDS011;6451;42.630;23.382;2023-02-01T00:03:24;5.60;;;4.50;;
12774;SDS011;6451;42.630;23.382;2023-02-01T00:05:55;5.00;;;4.53;;
12774;SDS011;6451;42.630;23.382;2023-02-01T00:08:23;5.40;;;4.70;;
12774;SDS011;6451;42.630;23.382;2023-02-01T00:10:58;6.03;;;4.40;;
12774;SDS011;6451;42.630;23.382;2023-02-01T00:13:28;6.83;;;5.00;;
12774;SDS011;6451;42.630;23.382;2023-02-01T00:16:01;5.13;;;4.23;;
12774;SDS011;6451;42.630;23.382;2023-02-01T00:18:29;5.57;;;4.23;;
12774;SDS011;6451;42.630;23.382;2023-02-01T00:20:56;5.07;;;4.57;;
12774;SDS011;6451;42.630;23.382;2023-02-01T00:23:23;5.33;;;4.40;;
12774;SDS011;6451;42.630;23.382;2023-02-01T00:25:50;6.17;;;4.53;;
12774;SDS011;6451;42.630;23.382;2023-02-01T00:28:18;6.17;;;4.60;;
12774;SDS011;6451;42.630;23.382;2023-02-01T00:30:45;4.90;;;4.27;;
12774;SDS011;6451;42.630;23.382;2023-02-01T00:33:12;6.90;;;4.63;;
12774;SDS011;6451;42.630;23.382;2023-02-01T00:35:39;4.83;;;3.97;;
12774;SDS011;6451;42.630;23.382;2023-02-01T00:38:06;5.10;;;4.00;;
12774;SDS011;6451;42.630;23.382;2023-02-01T00:40:33;6.03;;;4.60;;
12774;SDS011;6451;42.630;23.382;2023-02-01T00:42:59;5.17;;;4.10;;
12774;SDS011;6451;42.630;23.382;2023-02-01T00:45:28;4.63;;;4.23;;
12774;SDS011;6451;42.630;23.382;2023-02-01T00:47:54;5.33;;;4.37;;
12774;SDS011;6451;42.630;23.382;2023-02-01T00:50:21;4.93;;;4.43;;
12774;SDS011;6451;42.630;23.382;2023-02-01T00:52:48;5.77;;;4.03;;
12774;SDS011;6451;42.630;23.382;2023-02-01T00:55:16;5.13;;;3.80;;
12774;SDS011;6451;42.630;23.382;2023-02-01T00:57:43;5.53;;;4.07;;
12774;SDS011;6451;42.630;23.382;2023-02-01T01:00:10;5.40;;;3.70;;
12774;SDS011;6451;42.630;23.382;2023-02-01T01:02:39;5.10;;;3.60;;
12774;SDS011;6451;42.630;23.382;2023-02-01T01:05:07;5.00;;;3.80;;
12774;SDS011;6451;42.630;23.382;2023-02-01T01:07:34;4.23;;;3.83;;
12774;SDS011;6451;42.630;23.382;2023-02-01T01:10:01;5.70;;;3.60;;
12774;SDS011;6451;42.630;23.382;2023-02-01T01:12:28;7.37;;;3.90;;
12774;SDS011;6451;42.630;23.382;2023-02-01T01:14:55;4.10;;;3.70;;
12774;SDS011;6451;42.630;23.382;2023-02-01T01:17:22;6.03;;;3.50;;
12774;SDS011;6451;42.630;23.382;2023-02-01T01:19:50;4.07;;;3.50;;
12774;SDS011;6451;42.630;23.382;2023-02-01T01:22:17;4.43;;;3.60;;
12774;SDS011;6451;42.630;23.382;2023-02-01T01:24:45;4.20;;;3.20;;
12774;SDS011;6451;42.630;23.382;2023-02-01T01:27:12;4.80;;;3.20;;
12774;SDS011;6451;42.630;23.382;2023-02-01T01:29:39;5.00;;;3.50;;
12774;SDS011;6451;42.630;23.382;2023-02-01T01:32:06;3.60;;;3.10;;
12774;SDS011;6451;42.630;23.382;2023-02-01T01:34:32;3.80;;;3.23;;
12774;SDS011;6451;42.630;23.382;2023-02-01T01:37:01;3.73;;;3.10;;
12774;SDS011;6451;42.630;23.382;2023-02-01T01:39:28;3.63;;;3.10;;
12774;SDS011;6451;42.630;23.382;2023-02-01T01:41:55;3.67;;;2.90;;
12774;SDS011;6451;42.630;23.382;2023-02-01T01:47:24;3.33;;;2.90;;
12774;SDS011;6451;42.630;23.382;2023-02-01T01:49:53;7.13;;;3.63;;
12774;SDS011;6451;42.630;23.382;2023-02-01T01:52:22;4.47;;;2.60;;
12774;SDS011;6451;42.630;23.382;2023-02-01T01:54:50;3.63;;;2.93;;
12774;SDS011;6451;42.630;23.382;2023-02-01T01:57:21;7.07;;;3.03;;
12774;SDS011;6451;42.630;23.382;2023-02-01T01:59:55;3.30;;;2.90;;
12774;SDS011;6451;42.630;23.382;2023-02-01T02:02:28;5.20;;;2.87;;
12774;SDS011;6451;42.630;23.382;2023-02-01T02:04:55;3.60;;;2.73;;
12774;SDS011;6451;42.630;23.382;2023-02-01T02:07:25;4.83;;;2.67;;
12774;SDS011;6451;42.630;23.382;2023-02-01T02:09:54;3.57;;;2.90;;
12774;SDS011;6451;42.630;23.382;2023-02-01T02:12:21;4.10;;;2.50;;
12774;SDS011;6451;42.630;23.382;2023-02-01T02:14:48;3.83;;;3.27;;
12774;SDS011;6451;42.630;23.382;2023-02-01T02:17:22;3.20;;;2.90;;
12774;SDS011;6451;42.630;23.382;2023-02-01T02:20:14;4.97;;;2.87;;
12774;SDS011;6451;42.630;23.382;2023-02-01T02:23:17;4.20;;;3.20;;
12774;SDS011;6451;42.630;23.382;2023-02-01T02:26:01;4.53;;;3.10;;
12774;SDS011;6451;42.630;23.382;2023-02-01T02:28:59;3.30;;;2.50;;
12774;SDS011;6451;42.630;23.382;2023-02-01T02:31:58;3.30;;;2.53;;
12774;SDS011;6451;42.630;23.382;2023-02-01T02:34:45;3.97;;;3.00;;
12774;SDS011;6451;42.630;23.382;2023-02-01T02:37:18;3.70;;;3.30;;
12774;SDS011;6451;42.630;23.382;2023-02-01T02:39:53;3.07;;;2.77;;
12774;SDS011;6451;42.630;23.382;2023-02-01T02:42:29;4.20;;;3.00;;
12774;SDS011;6451;42.630;23.382;2023-02-01T02:45:21;3.97;;;2.90;;
12774;SDS011;6451;42.630;23.382;2023-02-01T02:48:13;4.67;;;2.63;;
12774;SDS011;6451;42.630;23.382;2023-02-01T02:50:49;3.77;;;2.27;;
12774;SDS011;6451;42.630;23.382;2023-02-01T02:53:43;6.20;;;3.20;;
12774;SDS011;6451;42.630;23.382;2023-02-01T02:56:43;3.40;;;2.60;;
12774;SDS011;6451;42.630;23.382;2023-02-01T02:59:27;3.43;;;2.60;;
12774;SDS011;6451;42.630;23.382;2023-02-01T03:02:14;4.43;;;2.70;;
12774;SDS011;6451;42.630;23.382;2023-02-01T03:05:00;4.00;;;2.10;;
12774;SDS011;6451;42.630;23.382;2023-02-01T03:07:50;3.60;;;2.30;;
12774;SDS011;6451;42.630;23.382;2023-02-01T03:10:29;2.83;;;2.10;;
12774;SDS011;6451;42.630;23.382;2023-02-01T03:13:08;2.97;;;2.57;;
12774;SDS011;6451;42.630;23.382;2023-02-01T03:15:38;3.53;;;2.37;;
12774;SDS011;6451;42.630;23.382;2023-02-01T03:18:11;4.03;;;2.20;;
12774;SDS011;6451;42.630;23.382;2023-02-01T03:20:42;4.00;;;2.20;;
12774;SDS011;6451;42.630;23.382;2023-02-01T03:23:14;6.37;;;2.17;;
12774;SDS011;6451;42.630;23.382;2023-02-01T03:25:46;3.47;;;2.30;;
12774;SDS011;6451;42.630;23.382;2023-02-01T03:28:15;4.37;;;2.43;;
12774;SDS011;6451;42.630;23.382;2023-02-01T03:30:46;4.20;;;2.63;;
12774;SDS011;6451;42.630;23.382;2023-02-01T03:33:15;3.37;;;2.20;;
12774;SDS011;6451;42.630;23.382;2023-02-01T03:35:50;2.73;;;2.03;;
12774;SDS011;6451;42.630;23.382;2023-02-01T03:38:26;3.10;;;2.40;;
12774;SDS011;6451;42.630;23.382;2023-02-01T03:40:58;3.87;;;2.20;;
12774;SDS011;6451;42.630;23.382;2023-02-01T03:43:30;3.27;;;2.43;;
12774;SDS011;6451;42.630;23.382;2023-02-01T03:46:04;2.40;;;2.20;;
12774;SDS011;6451;42.630;23.382;2023-02-01T03:48:35;4.50;;;2.47;;
12774;SDS011;6451;42.630;23.382;2023-02-01T03:51:05;4.10;;;2.30;;
12774;SDS011;6451;42.630;23.382;2023-02-01T03:53:35;3.27;;;2.47;;
12774;SDS011;6451;42.630;23.382;2023-02-01T03:56:05;3.00;;;2.00;;
12774;SDS011;6451;42.630;23.382;2023-02-01T03:58:33;3.33;;;2.00;;
12774;SDS011;6451;42.630;23.382;2023-02-01T04:01:00;3.10;;;1.80;;
12774;SDS011;6451;42.630;23.382;2023-02-01T04:03:27;2.50;;;2.03;;
12774;SDS011;6451;42.630;23.382;2023-02-01T04:05:55;3.67;;;2.30;;
12774;SDS011;6451;42.630;23.382;2023-02-01T04:08:22;3.17;;;2.37;;
12774;SDS011;6451;42.630;23.382;2023-02-01T04:10:51;3.07;;;2.07;;
12774;SDS011;6451;42.630;23.382;2023-02-01T04:13:17;2.33;;;2.10;;
12774;SDS011;6451;42.630;23.382;2023-02-01T04:15:44;4.40;;;2.27;;
12774;SDS011;6451;42.630;23.382;2023-02-01T04:18:15;3.03;;;2.50;;
12774;SDS011;6451;42.630;23.382;2023-02-01T04:20:42;3.57;;;2.13;;
12774;SDS011;6451;42.630;23.382;2023-02-01T04:23:09;2.30;;;2.00;;
12774;SDS011;6451;42.630;23.382;2023-02-01T04:25:36;5.20;;;2.30;;
12774;SDS011;6451;42.630;23.382;2023-02-01T04:28:04;3.57;;;2.70;;
12774;SDS011;6451;42.630;23.382;2023-02-01T04:30:33;2.10;;;1.90;;
12774;SDS011;6451;42.630;23.382;2023-02-01T04:32:59;2.30;;;2.00;;
12774;SDS011;6451;42.630;23.382;2023-02-01T04:35:28;5.77;;;2.93;;
12774;SDS011;6451;42.630;23.382;2023-02-01T04:37:55;3.63;;;2.63;;
12774;SDS011;6451;42.630;23.382;2023-02-01T04:40:22;4.63;;;2.80;;
12774;SDS011;6451;42.630;23.382;2023-02-01T04:42:49;5.47;;;3.00;;
12774;SDS011;6451;42.630;23.382;2023-02-01T04:45:17;3.13;;;2.60;;
12774;SDS011;6451;42.630;23.382;2023-02-01T04:47:44;5.10;;;3.07;;
12774;SDS011;6451;42.630;23.382;2023-02-01T04:50:11;4.53;;;2.97;;
12774;SDS011;6451;42.630;23.382;2023-02-01T04:52:38;3.90;;;3.13;;
12774;SDS011;6451;42.630;23.382;2023-02-01T04:55:05;5.13;;;3.20;;
12774;SDS011;6451;42.630;23.382;2023-02-01T04:57:32;5.47;;;3.60;;
12774;SDS011;6451;42.630;23.382;2023-02-01T04:59:59;5.30;;;3.33;;
12774;SDS011;6451;42.630;23.382;2023-02-01T05:02:28;3.60;;;2.97;;
12774;SDS011;6451;42.630;23.382;2023-02-01T05:04:55;6.23;;;3.90;;
12774;SDS011;6451;42.630;23.382;2023-02-01T05:07:21;7.30;;;3.10;;
12774;SDS011;6451;42.630;23.382;2023-02-01T05:09:48;7.23;;;3.80;;
12774;SDS011;6451;42.630;23.382;2023-02-01T05:12:16;4.57;;;3.33;;
12774;SDS011;6451;42.630;23.382;2023-02-01T05:15:00;5.07;;;3.37;;
12774;SDS011;6451;42.630;23.382;2023-02-01T05:17:28;4.50;;;3.40;;
12774;SDS011;6451;42.630;23.382;2023-02-01T05:19:55;7.30;;;3.57;;
12774;SDS011;6451;42.630;23.382;2023-02-01T05:22:22;7.27;;;3.37;;
12774;SDS011;6451;42.630;23.382;2023-02-01T05:24:49;5.20;;;3.40;;
12774;SDS011;6451;42.630;23.382;2023-02-01T05:27:16;5.27;;;3.50;;
12774;SDS011;6451;42.630;23.382;2023-02-01T05:29:43;3.70;;;3.33;;
12774;SDS011;6451;42.630;23.382;2023-02-01T05:32:11;3.63;;;3.20;;
12774;SDS011;6451;42.630;23.382;2023-02-01T05:34:39;5.50;;;3.63;;
12774;SDS011;6451;42.630;23.382;2023-02-01T05:37:06;7.23;;;4.10;;
12774;SDS011;6451;42.630;23.382;2023-02-01T05:39:33;6.13;;;3.90;;
12774;SDS011;6451;42.630;23.382;2023-02-01T05:42:00;6.97;;;4.10;;
12774;SDS011;6451;42.630;23.382;2023-02-01T05:44:27;6.73;;;4.37;;
12774;SDS011;6451;42.630;23.382;2023-02-01T05:46:54;7.47;;;4.07;;
12774;SDS011;6451;42.630;23.382;2023-02-01T05:49:21;7.77;;;3.50;;
12774;SDS011;6451;42.630;23.382;2023-02-01T05:51:49;8.07;;;4.17;;
12774;SDS011;6451;42.630;23.382;2023-02-01T05:54:17;6.53;;;4.13;;
12774;SDS011;6451;42.630;23.382;2023-02-01T05:56:47;7.23;;;4.10;;
12774;SDS011;6451;42.630;23.382;2023-02-01T05:59:17;5.93;;;3.80;;
12774;SDS011;6451;42.630;23.382;2023-02-01T06:01:44;5.40;;;3.67;;
12774;SDS011;6451;42.630;23.382;2023-02-01T06:04:11;4.90;;;3.63;;
12774;SDS011;6451;42.630;23.382;2023-02-01T06:06:38;4.77;;;3.07;;
12774;SDS011;6451;42.630;23.382;2023-02-01T06:09:06;5.50;;;3.50;;
12774;SDS011;6451;42.630;23.382;2023-02-01T06:11:33;4.70;;;2.70;;
12774;SDS011;6451;42.630;23.382;2023-02-01T06:14:00;5.60;;;3.20;;
12774;SDS011;6451;42.630;23.382;2023-02-01T06:16:27;4.43;;;2.83;;
12774;SDS011;6451;42.630;23.382;2023-02-01T06:18:54;7.17;;;2.77;;
12774;SDS011;6451;42.630;23.382;2023-02-01T06:21:21;6.40;;;3.10;;
12774;SDS011;6451;42.630;23.382;2023-02-01T06:23:49;5.67;;;3.20;;
12774;SDS011;6451;42.630;23.382;2023-02-01T06:26:18;5.20;;;2.93;;
12774;SDS011;6451;42.630;23.382;2023-02-01T06:28:45;3.60;;;2.70;;
12774;SDS011;6451;42.630;23.382;2023-02-01T06:31:12;5.83;;;2.90;;
12774;SDS011;6451;42.630;23.382;2023-02-01T06:33:39;4.27;;;2.77;;
12774;SDS011;6451;42.630;23.382;2023-02-01T06:36:07;4.87;;;3.17;;
12774;SDS011;6451;42.630;23.382;2023-02-01T06:38:37;5.83;;;2.70;;
12774;SDS011;6451;42.630;23.382;2023-02-01T06:41:04;3.27;;;2.53;;
12774;SDS011;6451;42.630;23.382;2023-02-01T06:43:33;3.43;;;2.60;;
12774;SDS011;6451;42.630;23.382;2023-02-01T06:46:01;4.43;;;2.20;;
12774;SDS011;6451;42.630;23.382;2023-02-01T06:48:30;5.97;;;2.57;;
12774;SDS011;6451;42.630;23.382;2023-02-01T06:50:57;5.07;;;2.40;;
12774;SDS011;6451;42.630;23.382;2023-02-01T06:53:24;4.67;;;2.40;;
12774;SDS011;6451;42.630;23.382;2023-02-01T06:55:52;4.23;;;2.37;;
12774;SDS011;6451;42.630;23.382;2023-02-01T06:58:19;4.27;;;2.60;;
12774;SDS011;6451;42.630;23.382;2023-02-01T07:00:48;4.20;;;1.93;;
12774;SDS011;6451;42.630;23.382;2023-02-01T07:03:15;5.07;;;2.60;;
12774;SDS011;6451;42.630;23.382;2023-02-01T07:05:42;4.00;;;2.47;;
12774;SDS011;6451;42.630;23.382;2023-02-01T07:08:09;5.03;;;2.60;;
12774;SDS011;6451;42.630;23.382;2023-02-01T07:10:36;5.67;;;2.63;;
12774;SDS011;6451;42.630;23.382;2023-02-01T07:13:04;4.13;;;2.40;;
12774;SDS011;6451;42.630;23.382;2023-02-01T07:15:31;6.07;;;2.43;;
12774;SDS011;6451;42.630;23.382;2023-02-01T07:17:59;7.90;;;3.03;;
12774;SDS011;6451;42.630;23.382;2023-02-01T07:20:26;3.33;;;2.47;;
12774;SDS011;6451;42.630;23.382;2023-02-01T07:22:56;4.63;;;2.93;;
12774;SDS011;6451;42.630;23.382;2023-02-01T07:25:23;3.53;;;2.43;;
12774;SDS011;6451;42.630;23.382;2023-02-01T07:27:50;4.57;;;2.80;;
12774;SDS011;6451;42.630;23.382;2023-02-01T07:30:17;3.43;;;2.17;;
12774;SDS011;6451;42.630;23.382;2023-02-01T07:32:45;5.70;;;2.60;;
12774;SDS011;6451;42.630;23.382;2023-02-01T07:35:13;4.97;;;2.50;;
12774;SDS011;6451;42.630;23.382;2023-02-01T07:37:40;4.33;;;2.63;;
12774;SDS011;6451;42.630;23.382;2023-02-01T07:40:08;4.30;;;2.17;;
12774;SDS011;6451;42.630;23.382;2023-02-01T07:42:36;3.47;;;2.30;;
12774;SDS011;6451;42.630;23.382;2023-02-01T07:45:03;3.63;;;2.50;;
12774;SDS011;6451;42.630;23.382;2023-02-01T07:47:31;5.23;;;2.10;;
12774;SDS011;6451;42.630;23.382;2023-02-01T07:49:58;3.87;;;2.20;;
12774;SDS011;6451;42.630;23.382;2023-02-01T07:52:28;5.00;;;2.47;;
12774;SDS011;6451;42.630;23.382;2023-02-01T07:54:55;5.20;;;2.70;;
12774;SDS011;6451;42.630;23.382;2023-02-01T07:57:22;3.23;;;2.27;;
12774;SDS011;6451;42.630;23.382;2023-02-01T07:59:48;5.17;;;2.20;;
12774;SDS011;6451;42.630;23.382;2023-02-01T08:02:33;4.57;;;2.20;;
12774;SDS011;6451;42.630;23.382;2023-02-01T08:05:00;5.07;;;2.60;;
12774;SDS011;6451;42.630;23.382;2023-02-01T08:07:27;3.87;;;2.43;;
12774;SDS011;6451;42.630;23.382;2023-02-01T08:09:56;3.57;;;2.13;;
12774;SDS011;6451;42.630;23.382;2023-02-01T08:12:24;5.40;;;2.60;;
12774;SDS011;6451;42.630;23.382;2023-02-01T08:14:53;5.37;;;2.63;;
12774;SDS011;6451;42.630;23.382;2023-02-01T08:17:21;4.70;;;2.60;;
12774;SDS011;6451;42.630;23.382;2023-02-01T08:19:52;4.07;;;2.20;;
12774;SDS011;6451;42.630;23.382;2023-02-01T08:22:20;6.20;;;2.10;;
12774;SDS011;6451;42.630;23.382;2023-02-01T08:24:49;6.97;;;2.47;;
12774;SDS011;6451;42.630;23.382;2023-02-01T08:27:17;6.67;;;2.30;;
12774;SDS011;6451;42.630;23.382;2023-02-01T08:29:43;6.13;;;2.30;;
12774;SDS011;6451;42.630;23.382;2023-02-01T08:32:10;3.17;;;1.93;;
12774;SDS011;6451;42.630;23.382;2023-02-01T08:34:37;5.73;;;1.87;;
12774;SDS011;6451;42.630;23.382;2023-02-01T08:37:04;5.80;;;1.87;;
12774;SDS011;6451;42.630;23.382;2023-02-01T08:39:32;4.07;;;2.00;;
12774;SDS011;6451;42.630;23.382;2023-02-01T08:42:00;3.53;;;2.30;;
12774;SDS011;6451;42.630;23.382;2023-02-01T08:44:44;4.57;;;2.10;;
12774;SDS011;6451;42.630;23.382;2023-02-01T08:47:12;5.13;;;1.80;;
12774;SDS011;6451;42.630;23.382;2023-02-01T08:49:39;4.90;;;1.90;;
12774;SDS011;6451;42.630;23.382;2023-02-01T08:52:06;3.90;;;1.93;;
12774;SDS011;6451;42.630;23.382;2023-02-01T08:54:32;3.30;;;2.10;;
12774;SDS011;6451;42.630;23.382;2023-02-01T08:57:02;3.83;;;2.00;;
12774;SDS011;6451;42.630;23.382;2023-02-01T08:59:29;3.07;;;1.70;;
12774;SDS011;6451;42.630;23.382;2023-02-01T09:01:56;3.57;;;2.07;;
12774;SDS011;6451;42.630;23.382;2023-02-01T09:04:23;4.17;;;2.20;;
12774;SDS011;6451;42.630;23.382;2023-02-01T09:06:49;7.33;;;2.43;;
12774;SDS011;6451;42.630;23.382;2023-02-01T09:09:17;4.47;;;1.70;;
12774;SDS011;6451;42.630;23.382;2023-02-01T09:11:44;4.23;;;1.90;;
12774;SDS011;6451;42.630;23.382;2023-02-01T09:14:15;4.23;;;1.90;;
12774;SDS011;6451;42.630;23.382;2023-02-01T09:16:41;4.37;;;1.90;;
12774;SDS011;6451;42.630;23.382;2023-02-01T09:19:08;4.53;;;2.13;;
12774;SDS011;6451;42.630;23.382;2023-02-01T09:21:35;4.23;;;1.77;;
12774;SDS011;6451;42.630;23.382;2023-02-01T09:24:02;3.47;;;2.20;;
12774;SDS011;6451;42.630;23.382;2023-02-01T09:26:30;4.80;;;2.10;;
12774;SDS011;6451;42.630;23.382;2023-02-01T09:28:56;4.63;;;2.13;;
12774;SDS011;6451;42.630;23.382;2023-02-01T09:31:25;3.90;;;2.00;;
12774;SDS011;6451;42.630;23.382;2023-02-01T09:33:54;2.60;;;1.63;;
12774;SDS011;6451;42.630;23.382;2023-02-01T09:36:20;3.60;;;2.03;;
12774;SDS011;6451;42.630;23.382;2023-02-01T09:38:48;3.67;;;2.00;;
12774;SDS011;6451;42.630;23.382;2023-02-01T09:41:20;4.67;;;1.97;;
12774;SDS011;6451;42.630;23.382;2023-02-01T09:43:58;7.13;;;2.03;;
12774;SDS011;6451;42.630;23.382;2023-02-01T09:46:38;4.37;;;2.00;;
12774;SDS011;6451;42.630;23.382;2023-02-01T09:49:05;5.73;;;2.20;;
12774;SDS011;6451;42.630;23.382;2023-02-01T09:51:42;3.90;;;1.80;;
12774;SDS011;6451;42.630;23.382;2023-02-01T09:54:13;4.00;;;1.90;;
12774;SDS011;6451;42.630;23.382;2023-02-01T09:56:44;4.23;;;2.10;;
12774;SDS011;6451;42.630;23.382;2023-02-01T09:59:19;2.47;;;1.90;;
12774;SDS011;6451;42.630;23.382;2023-02-01T10:01:52;4.73;;;2.30;;
12774;SDS011;6451;42.630;23.382;2023-02-01T10:04:19;5.17;;;2.20;;
12774;SDS011;6451;42.630;23.382;2023-02-01T10:06:52;4.40;;;2.20;;
12774;SDS011;6451;42.630;23.382;2023-02-01T10:09:39;3.97;;;2.10;;
12774;SDS011;6451;42.630;23.382;2023-02-01T10:15:15;3.43;;;2.07;;
12774;SDS011;6451;42.630;23.382;2023-02-01T10:18:03;5.13;;;1.90;;
12774;SDS011;6451;42.630;23.382;2023-02-01T10:20:46;3.07;;;1.90;;
12774;SDS011;6451;42.630;23.382;2023-02-01T10:23:29;5.97;;;1.87;;
12774;SDS011;6451;42.630;23.382;2023-02-01T10:26:12;5.30;;;1.90;;
12774;SDS011;6451;42.630;23.382;2023-02-01T10:28:44;2.23;;;1.60;;
12774;SDS011;6451;42.630;23.382;2023-02-01T10:31:15;3.47;;;1.97;;
12774;SDS011;6451;42.630;23.382;2023-02-01T10:33:45;5.10;;;2.43;;
12774;SDS011;6451;42.630;23.382;2023-02-01T10:36:14;3.50;;;1.83;;
12774;SDS011;6451;42.630;23.382;2023-02-01T10:38:45;4.20;;;2.03;;
12774;SDS011;6451;42.630;23.382;2023-02-01T10:41:13;3.00;;;1.90;;
12774;SDS011;6451;42.630;23.382;2023-02-01T10:43:43;2.63;;;1.90;;
12774;SDS011;6451;42.630;23.382;2023-02-01T10:46:14;3.10;;;1.93;;
12774;SDS011;6451;42.630;23.382;2023-02-01T10:48:41;3.53;;;1.73;;
12774;SDS011;6451;42.630;23.382;2023-02-01T10:51:12;3.87;;;1.53;;
12774;SDS011;6451;42.630;23.382;2023-02-01T10:53:44;2.30;;;1.70;;
12774;SDS011;6451;42.630;23.382;2023-02-01T10:56:21;5.53;;;1.93;;
12774;SDS011;6451;42.630;23.382;2023-02-01T10:58:50;3.17;;;1.93;;
12774;SDS011;6451;42.630;23.382;2023-02-01T11:01:19;4.00;;;1.80;;
12774;SDS011;6451;42.630;23.382;2023-02-01T11:03:51;3.77;;;1.93;;
12774;SDS011;6451;42.630;23.382;2023-02-01T11:06:27;3.23;;;1.87;;
12774;SDS011;6451;42.630;23.382;2023-02-01T11:08:57;4.33;;;2.10;;
12774;SDS011;6451;42.630;23.382;2023-02-01T11:11:27;2.23;;;1.77;;
12774;SDS011;6451;42.630;23.382;2023-02-01T11:13:55;5.20;;;2.07;;
12774;SDS011;6451;42.630;23.382;2023-02-01T11:16:29;3.80;;;1.87;;
12774;SDS011;6451;42.630;23.382;2023-02-01T11:18:59;1.90;;;1.47;;
12774;SDS011;6451;42.630;23.382;2023-02-01T11:21:27;3.80;;;1.90;;
12774;SDS011;6451;42.630;23.382;2023-02-01T11:23:54;2.27;;;1.73;;
12774;SDS011;6451;42.630;23.382;2023-02-01T11:26:26;3.33;;;2.13;;
12774;SDS011;6451;42.630;23.382;2023-02-01T11:28:56;2.77;;;1.63;;
12774;SDS011;6451;42.630;23.382;2023-02-01T11:31:26;2.40;;;1.80;;
12774;SDS011;6451;42.630;23.382;2023-02-01T11:33:55;4.33;;;1.90;;
12774;SDS011;6451;42.630;23.382;2023-02-01T11:36:27;2.53;;;1.67;;
12774;SDS011;6451;42.630;23.382;2023-02-01T11:39:07;2.37;;;1.40;;
12774;SDS011;6451;42.630;23.382;2023-02-01T11:41:43;2.23;;;1.50;;
12774;SDS011;6451;42.630;23.382;2023-02-01T11:44:28;2.50;;;1.47;;
12774;SDS011;6451;42.630;23.382;2023-02-01T11:47:21;3.40;;;1.60;;
12774;SDS011;6451;42.630;23.382;2023-02-01T11:49:50;2.90;;;1.67;;
12774;SDS011;6451;42.630;23.382;2023-02-01T11:52:25;2.40;;;1.60;;
12774;SDS011;6451;42.630;23.382;2023-02-01T11:55:17;2.40;;;1.60;;
12774;SDS011;6451;42.630;23.382;2023-02-01T11:58:04;2.23;;;1.60;;
12774;SDS011;6451;42.630;23.382;2023-02-01T12:00:52;2.17;;;1.60;;
12774;SDS011;6451;42.630;23.382;2023-02-01T12:03:34;1.90;;;1.40;;
12774;SDS011;6451;42.630;23.382;2023-02-01T12:06:35;3.70;;;1.27;;
12774;SDS011;6451;42.630;23.382;2023-02-01T12:09:14;2.93;;;1.30;;
12774;SDS011;6451;42.630;23.382;2023-02-01T12:11:53;3.67;;;1.60;;
12774;SDS011;6451;42.630;23.382;2023-02-01T12:14:36;1.77;;;1.40;;
12774;SDS011;6451;42.630;23.382;2023-02-01T12:17:22;2.97;;;1.70;;
12774;SDS011;6451;42.630;23.382;2023-02-01T12:20:09;4.00;;;1.43;;
12774;SDS011;6451;42.630;23.382;2023-02-01T12:22:49;5.00;;;1.70;;
12774;SDS011;6451;42.630;23.382;2023-02-01T12:25:32;2.10;;;1.77;;
12774;SDS011;6451;42.630;23.382;2023-02-01T12:28:15;2.97;;;1.60;;
12774;SDS011;6451;42.630;23.382;2023-02-01T12:30:56;3.23;;;1.53;;
12774;SDS011;6451;42.630;23.382;2023-02-01T12:33:45;2.10;;;1.53;;
12774;SDS011;6451;42.630;23.382;2023-02-01T12:36:25;3.30;;;1.63;;
12774;SDS011;6451;42.630;23.382;2023-02-01T12:39:00;5.60;;;1.63;;
12774;SDS011;6451;42.630;23.382;2023-02-01T12:41:50;3.37;;;1.93;;
12774;SDS011;6451;42.630;23.382;2023-02-01T12:44:26;2.53;;;1.93;;
12774;SDS011;6451;42.630;23.382;2023-02-01T12:46:59;2.50;;;1.60;;
12774;SDS011;6451;42.630;23.382;2023-02-01T12:49:33;2.67;;;1.60;;
12774;SDS011;6451;42.630;23.382;2023-02-01T12:52:10;4.63;;;1.67;;
12774;SDS011;6451;42.630;23.382;2023-02-01T12:54:42;3.80;;;1.47;;
12774;SDS011;6451;42.630;23.382;2023-02-01T12:57:17;4.60;;;1.40;;
12774;SDS011;6451;42.630;23.382;2023-02-01T12:59:51;4.63;;;1.67;;
12774;SDS011;6451;42.630;23.382;2023-02-01T13:02:25;2.63;;;1.80;;
12774;SDS011;6451;42.630;23.382;2023-02-01T13:05:02;3.50;;;1.60;;
12774;SDS011;6451;42.630;23.382;2023-02-01T13:07:41;4.90;;;2.00;;
12774;SDS011;6451;42.630;23.382;2023-02-01T13:10:13;4.13;;;1.87;;
12774;SDS011;6451;42.630;23.382;2023-02-01T13:12:47;1.93;;;1.40;;
12774;SDS011;6451;42.630;23.382;2023-02-01T13:15:23;2.47;;;1.63;;
12774;SDS011;6451;42.630;23.382;2023-02-01T13:18:02;3.70;;;1.50;;
12774;SDS011;6451;42.630;23.382;2023-02-01T13:20:33;3.23;;;1.53;;
12774;SDS011;6451;42.630;23.382;2023-02-01T13:23:07;3.73;;;1.50;;
12774;SDS011;6451;42.630;23.382;2023-02-01T13:25:42;2.77;;;1.77;;
12774;SDS011;6451;42.630;23.382;2023-02-01T13:28:18;4.07;;;2.07;;
12774;SDS011;6451;42.630;23.382;2023-02-01T13:31:02;2.90;;;1.80;;
12774;SDS011;6451;42.630;23.382;2023-02-01T13:34:01;2.20;;;1.53;;
12774;SDS011;6451;42.630;23.382;2023-02-01T13:36:56;3.37;;;1.57;;
12774;SDS011;6451;42.630;23.382;2023-02-01T13:39:43;2.57;;;1.60;;
12774;SDS011;6451;42.630;23.382;2023-02-01T13:42:17;2.50;;;1.80;;
12774;SDS011;6451;42.630;23.382;2023-02-01T13:44:48;2.60;;;1.80;;
12774;SDS011;6451;42.630;23.382;2023-02-01T13:47:22;4.20;;;1.90;;
12774;SDS011;6451;42.630;23.382;2023-02-01T13:49:55;4.00;;;1.90;;
12774;SDS011;6451;42.630;23.382;2023-02-01T13:52:36;2.00;;;1.70;;
12774;SDS011;6451;42.630;23.382;2023-02-01T13:57:58;2.70;;;1.70;;
12774;SDS011;6451;42.630;23.382;2023-02-01T14:00:35;3.63;;;1.63;;
12774;SDS011;6451;42.630;23.382;2023-02-01T14:03:15;1.90;;;1.57;;
12774;SDS011;6451;42.630;23.382;2023-02-01T14:08:44;3.13;;;1.70;;
12774;SDS011;6451;42.630;23.382;2023-02-01T14:11:37;2.37;;;1.80;;
12774;SDS011;6451;42.630;23.382;2023-02-01T14:23:11;3.97;;;1.73;;
12774;SDS011;6451;42.630;23.382;2023-02-01T14:25:41;2.70;;;1.30;;
12774;SDS011;6451;42.630;23.382;2023-02-01T14:28:16;3.53;;;1.80;;
12774;SDS011;6451;42.630;23.382;2023-02-01T14:30:50;4.20;;;1.90;;
12774;SDS011;6451;42.630;23.382;2023-02-01T14:33:20;2.53;;;1.80;;
12774;SDS011;6451;42.630;23.382;2023-02-01T14:35:57;3.43;;;1.80;;
12774;SDS011;6451;42.630;23.382;2023-02-01T14:38:30;4.60;;;1.97;;
12774;SDS011;6451;42.630;23.382;2023-02-01T14:41:10;3.97;;;2.10;;
12774;SDS011;6451;42.630;23.382;2023-02-01T14:44:12;6.33;;;1.90;;
12774;SDS011;6451;42.630;23.382;2023-02-01T14:53:10;4.37;;;1.80;;
12774;SDS011;6451;42.630;23.382;2023-02-01T14:55:52;2.50;;;1.77;;
12774;SDS011;6451;42.630;23.382;2023-02-01T14:58:27;2.27;;;1.80;;
12774;SDS011;6451;42.630;23.382;2023-02-01T15:01:02;2.83;;;1.80;;
12774;SDS011;6451;42.630;23.382;2023-02-01T15:03:34;3.33;;;1.70;;
12774;SDS011;6451;42.630;23.382;2023-02-01T15:06:20;1.97;;;1.70;;
12774;SDS011;6451;42.630;23.382;2023-02-01T15:08:57;2.90;;;1.83;;
12774;SDS011;6451;42.630;23.382;2023-02-01T15:11:28;4.03;;;1.97;;
12774;SDS011;6451;42.630;23.382;2023-02-01T15:13:56;5.17;;;2.00;;
12774;SDS011;6451;42.630;23.382;2023-02-01T15:16:25;6.37;;;2.30;;
12774;SDS011;6451;42.630;23.382;2023-02-01T15:19:08;3.33;;;2.10;;
12774;SDS011;6451;42.630;23.382;2023-02-01T15:21:45;3.13;;;2.10;;
12774;SDS011;6451;42.630;23.382;2023-02-01T15:24:14;3.53;;;2.10;;
12774;SDS011;6451;42.630;23.382;2023-02-01T15:26:46;3.13;;;2.03;;
12774;SDS011;6451;42.630;23.382;2023-02-01T15:29:13;3.40;;;1.93;;
12774;SDS011;6451;42.630;23.382;2023-02-01T15:31:41;4.63;;;2.27;;
12774;SDS011;6451;42.630;23.382;2023-02-01T15:34:10;3.50;;;2.40;;
12774;SDS011;6451;42.630;23.382;2023-02-01T15:36:38;4.50;;;2.30;;
12774;SDS011;6451;42.630;23.382;2023-02-01T15:39:13;3.20;;;2.10;;
12774;SDS011;6451;42.630;23.382;2023-02-01T15:41:45;3.13;;;2.03;;
12774;SDS011;6451;42.630;23.382;2023-02-01T15:44:16;3.13;;;1.80;;